Sea Cloud II — 9HUE6 — position and weather

sailwx.info

Track history (hours):
 
Tides and Currents Weather Stations Pressure Air Temp Water Temp Dewpoint Dewpoint Depression Visibility Wind Speed Wind Dir Waves Ship Positions

Sea Cloud II

Ship's website: http://www.seacloud.com/en/the-ships/sea-cloud-ii.html

Last reported at 2018-Apr-26 18:24 UTC. Time now 2018-Apr-26 19:15 UTC.
Position N 38°59' E 001°40'.

Length 117 m; draft 6 m.

Type: Passenger vessel. MMSI: 248953000.

Date/timePositionNaut miles runAvg speedWind from/ knotsBaromVisibWave heightAir tempDewpointWater temp
2018-Apr-26 18:24N 38°59' E 001°40'4 9.4
2018-Apr-26 18:00N 38°57' E 001°36'5 9.8
2018-Apr-26 17:30N 38°54' E 001°31'3 6.9
2018-Apr-26 17:00N 38°55' E 001°27'0 0.3
2018-Apr-26 16:21N 38°55' E 001°26'0 0.0
2018-Apr-26 16:00N 38°55' E 001°26'0 0.0
2018-Apr-26 15:30N 38°55' E 001°26'0 0.0
2018-Apr-26 15:00N 38°55' E 001°26'0 0.0
2018-Apr-26 14:30N 38°55' E 001°26'0 0.0
2018-Apr-26 14:00N 38°55' E 001°26'0 0.0
2018-Apr-26 13:27N 38°55' E 001°26'0 0.0
2018-Apr-26 12:57N 38°55' E 001°26'0 0.0
2018-Apr-26 12:30N 38°55' E 001°26'0 0.0
2018-Apr-26 12:00N 38°55' E 001°26'0 0.0
2018-Apr-26 11:30N 38°55' E 001°26'0 0.2
2018-Apr-26 10:58N 38°55' E 001°27'2 3.1
2018-Apr-26 10:29N 38°54' E 001°28'3 5.8
2018-Apr-26 09:57N 38°51' E 001°31'4 8.8
2018-Apr-26 09:31N 38°48' E 001°33'121 8.7
2018-Apr-25 19:37N 37°24' W 000°17'510.8
2018-Apr-25 19:11N 37°21' W 000°22'2010.0
2018-Apr-25 17:12N 37°08' W 000°41'6 9.5
2018-Apr-25 16:32N 37°04' W 000°47'221 5.1
2018-Apr-23 21:13N 36°03' W 005°11'211.0
2018-Apr-23 21:00N 36°02' W 005°14'611.4
2018-Apr-23 20:29N 35°60' W 005°21'611.6
2018-Apr-23 20:01N 35°58' W 005°28'611.2
2018-Apr-23 19:28N 35°56' W 005°35'610.5
2018-Apr-23 18:56N 35°56' W 005°42'131 5.4
2018-Apr-22 18:38N 36°56' W 008°06'2 9.8
2018-Apr-22 18:26N 36°57' W 008°09'4 9.9
2018-Apr-22 18:00N 36°59' W 008°14'510.3
2018-Apr-22 17:30N 37°01' W 008°20'510.3
2018-Apr-22 17:00N 37°03' W 008°25'5 9.9
2018-Apr-22 16:28N 37°05' W 008°31'2 4.7
2018-Apr-22 15:57N 37°08' W 008°32'0 0.0
2018-Apr-22 15:27N 37°08' W 008°32'0 0.0
2018-Apr-22 14:57N 37°08' W 008°32'0 0.0
2018-Apr-22 14:27N 37°08' W 008°32'0 0.0
2018-Apr-22 14:00N 37°08' W 008°32'0 0.0
2018-Apr-22 13:27N 37°08' W 008°32'0 0.0
2018-Apr-22 12:57N 37°08' W 008°32'0 0.0
2018-Apr-22 12:21N 37°08' W 008°32'0 0.0
2018-Apr-22 12:00N 37°08' W 008°32'2 3.5
2018-Apr-22 11:30N 37°06' W 008°32'3 5.6
2018-Apr-22 11:00N 37°03' W 008°34'1 3.0
2018-Apr-22 10:30N 37°02' W 008°33'1 1.6
2018-Apr-22 10:00N 37°02' W 008°32'1 1.7
2018-Apr-22 09:30N 37°01' W 008°32'1 2.5
2018-Apr-22 09:00N 36°60' W 008°31'1 2.3
2018-Apr-22 08:30N 36°59' W 008°30'1 2.9
2018-Apr-22 08:00N 36°57' W 008°30'2 3.4
2018-Apr-22 07:30N 36°56' W 008°28'2 3.9
2018-Apr-22 06:59N 36°54' W 008°27'2 4.7
2018-Apr-22 06:28N 36°53' W 008°30'610.5
2018-Apr-22 05:54N 36°51' W 008°37'410.9
2018-Apr-22 05:30N 36°51' W 008°42'510.8
2018-Apr-22 05:00N 36°50' W 008°49'48 9.2
2018-Apr-21 23:47N 37°33' W 009°17'311.9
2018-Apr-21 23:30N 37°36' W 009°17'611.9
2018-Apr-21 23:00N 37°42' W 009°18'612.1
2018-Apr-21 22:30N 37°48' W 009°18'611.8
2018-Apr-21 22:00N 37°54' W 009°19'611.3
2018-Apr-21 21:30N 37°59' W 009°19'611.1
2018-Apr-21 21:00N 38°05' W 009°19'611.3
2018-Apr-21 20:30N 38°11' W 009°19'611.3
2018-Apr-21 20:00N 38°16' W 009°21'510.9
2018-Apr-21 19:30N 38°22' W 009°22'510.6
2018-Apr-21 19:00N 38°27' W 009°22'510.8
2018-Apr-21 18:30N 38°32' W 009°23'510.5
2018-Apr-21 18:00N 38°37' W 009°22'510.0
2018-Apr-21 17:30N 38°41' W 009°17'4 8.3
2018-Apr-21 17:00N 38°41' W 009°12'4 7.9
2018-Apr-21 16:30N 38°43' W 009°07'0 0.0
2018-Apr-21 15:33N 38°43' W 009°07'0 0.0
2018-Apr-21 15:30N 38°43' W 009°07'0 0.0
2018-Apr-21 14:51N 38°43' W 009°07'0 0.0
2018-Apr-21 14:12N 38°43' W 009°07'0 0.0
2018-Apr-21 13:57N 38°43' W 009°07'0 0.0
2018-Apr-21 13:09N 38°43' W 009°07'0 0.0
2018-Apr-21 12:40N 38°43' W 009°07'0 0.0
2018-Apr-21 12:09N 38°43' W 009°07'0 0.0
2018-Apr-21 11:51N 38°43' W 009°07'0 0.0
2018-Apr-21 11:30N 38°43' W 009°07'0 0.0
2018-Apr-21 10:48N 38°43' W 009°07'0 0.0
2018-Apr-21 10:27N 38°43' W 009°07'0 0.0
2018-Apr-21 10:00N 38°43' W 009°07'0 0.0
2018-Apr-21 09:24N 38°43' W 009°07'0 0.0
2018-Apr-21 08:57N 38°43' W 009°07'0 0.0
2018-Apr-21 08:30N 38°43' W 009°07'0 0.0
2018-Apr-21 08:01N 38°43' W 009°07'0 0.0
2018-Apr-21 07:30N 38°43' W 009°07'0 0.0
2018-Apr-21 06:57N 38°43' W 009°07'0 0.0
2018-Apr-21 06:27N 38°43' W 009°07'0 0.0
2018-Apr-21 06:01N 38°43' W 009°07'0 0.0
2018-Apr-21 05:31N 38°43' W 009°07'0 0.0
2018-Apr-21 05:01N 38°43' W 009°07'0 0.0
2018-Apr-21 04:31N 38°43' W 009°07'0 0.0
2018-Apr-21 04:00N 38°43' W 009°07'0 0.0
2018-Apr-21 03:24N 38°43' W 009°07'0 0.0
2018-Apr-21 02:54N 38°43' W 009°07'0 0.0
2018-Apr-21 02:30N 38°43' W 009°07'0 0.0
2018-Apr-21 01:57N 38°43' W 009°07'0 0.0
2018-Apr-21 01:15N 38°43' W 009°07'0 0.0
2018-Apr-21 00:39N 38°43' W 009°07'0 0.0
2018-Apr-21 00:27N 38°43' W 009°07'0 0.0
2018-Apr-20 23:15N 38°43' W 009°07'0 0.1
2018-Apr-20 23:00N 38°43' W 009°07'0 0.0
2018-Apr-20 22:30N 38°43' W 009°07'0 0.0
2018-Apr-20 21:51N 38°43' W 009°07'0 0.0
2018-Apr-20 21:30N 38°43' W 009°07'0 0.0
2018-Apr-20 21:00N 38°43' W 009°07'0 0.0
2018-Apr-20 20:30N 38°43' W 009°07'0 0.0
2018-Apr-20 19:54N 38°43' W 009°07'0 0.0
2018-Apr-20 19:21N 38°43' W 009°07'0 0.0
2018-Apr-20 18:57N 38°43' W 009°07'0 0.0
2018-Apr-20 18:30N 38°43' W 009°07'0 0.0
2018-Apr-20 17:48N 38°43' W 009°07'0 0.0
2018-Apr-20 17:27N 38°43' W 009°07'0 0.0
2018-Apr-20 16:54N 38°43' W 009°07'0 0.0
2018-Apr-20 16:24N 38°43' W 009°07'0 0.0
2018-Apr-20 15:48N 38°43' W 009°07'0 0.0
2018-Apr-20 15:18N 38°43' W 009°07'0 0.0
2018-Apr-20 14:51N 38°43' W 009°07'0 0.0
2018-Apr-20 14:24N 38°43' W 009°07'0 0.0
2018-Apr-20 14:00N 38°43' W 009°07'0 0.0
2018-Apr-20 13:27N 38°43' W 009°07'0 0.0
2018-Apr-20 13:00N 38°43' W 009°07'0 0.2
2018-Apr-20 12:30N 38°43' W 009°07'3 6.5
2018-Apr-20 12:00N 38°41' W 009°11'4 7.1
2018-Apr-20 11:30N 38°41' W 009°16'4 8.4
2018-Apr-20 11:00N 38°39' W 009°20'3 6.1
2018-Apr-20 10:30N 38°37' W 009°23'1 2.2
2018-Apr-20 10:00N 38°36' W 009°23'2 4.9
2018-Apr-20 09:30N 38°34' W 009°22'2 4.5
2018-Apr-20 09:00N 38°32' W 009°21'2 3.4
2018-Apr-20 08:30N 38°30' W 009°20'2 4.1
2018-Apr-20 08:00N 38°28' W 009°18'1 2.2
2018-Apr-20 07:30N 38°27' W 009°17'2 4.6
2018-Apr-20 07:00N 38°25' W 009°17'3 6.1
2018-Apr-20 06:30N 38°22' W 009°18'3 6.3
2018-Apr-20 06:00N 38°19' W 009°20'3 6.2
2018-Apr-20 05:30N 38°16' W 009°21'3 6.8
2018-Apr-20 05:00N 38°13' W 009°23'4 7.1
2018-Apr-20 04:30N 38°10' W 009°23'510.3
2018-Apr-20 04:00N 38°05' W 009°23'510.2
2018-Apr-20 03:30N 37°60' W 009°23'510.1
2018-Apr-20 03:00N 37°54' W 009°23'510.0
2018-Apr-20 02:30N 37°50' W 009°23'510.0
2018-Apr-20 02:00N 37°45' W 009°23'5 9.9
2018-Apr-20 01:30N 37°40' W 009°23'5 9.9
2018-Apr-20 01:00N 37°35' W 009°22'510.1
2018-Apr-20 00:29N 37°29' W 009°22'5 9.9
2018-Apr-20 00:00N 37°25' W 009°22'5 9.8
2018-Apr-19 23:30N 37°20' W 009°22'5 9.5
2018-Apr-19 23:00N 37°15' W 009°22'5 9.1
2018-Apr-19 22:30N 37°10' W 009°22'5 9.4
2018-Apr-19 21:59N 37°06' W 009°22'4 9.2
2018-Apr-19 21:30N 37°01' W 009°21'5 9.3
2018-Apr-19 21:00N 36°57' W 009°20'6 9.2
2018-Apr-19 20:19N 36°51' W 009°16'4 9.7
2018-Apr-19 19:53N 36°48' W 009°13'29 8.9
2018-Apr-19 16:42N 36°58' W 008°40'1 6.8
2018-Apr-19 16:30N 36°60' W 008°39'1 1.9
2018-Apr-19 16:00N 37°00' W 008°38'1 2.3
2018-Apr-19 15:30N 37°01' W 008°37'1 2.2
2018-Apr-19 15:00N 37°02' W 008°36'1 2.4
2018-Apr-19 14:30N 37°03' W 008°35'2 3.2
2018-Apr-19 14:00N 37°04' W 008°34'2 3.5
2018-Apr-19 13:30N 37°05' W 008°32'2 2.9
2018-Apr-19 12:41N 37°08' W 008°32'0 0.0
2018-Apr-19 12:11N 37°08' W 008°32'0 0.0
2018-Apr-19 11:59N 37°08' W 008°32'0 0.0
2018-Apr-19 10:23N 37°08' W 008°32'0 0.0
2018-Apr-19 09:59N 37°08' W 008°32'0 0.0
2018-Apr-19 09:29N 37°08' W 008°32'0 0.0
2018-Apr-19 08:59N 37°08' W 008°32'0 0.0
2018-Apr-19 08:29N 37°08' W 008°32'0 0.0
2018-Apr-19 07:59N 37°08' W 008°32'0 0.0
2018-Apr-19 07:29N 37°08' W 008°32'0 0.0
2018-Apr-19 06:59N 37°08' W 008°32'0 0.0
2018-Apr-19 06:29N 37°08' W 008°32'0 0.0
2018-Apr-19 05:59N 37°08' W 008°32'0 0.8
2018-Apr-19 05:30N 37°07' W 008°32'3 6.7
2018-Apr-19 05:01N 37°04' W 008°31'1 2.5
2018-Apr-19 04:30N 37°03' W 008°33'2 3.8
2018-Apr-19 04:00N 37°03' W 008°31'2 4.5
2018-Apr-19 03:31N 37°02' W 008°28'3 5.0
2018-Apr-19 03:00N 37°01' W 008°26'3 6.2
2018-Apr-19 02:30N 36°59' W 008°22'4 7.2
2018-Apr-19 02:00N 36°57' W 008°19'  
Track history (hours):
 
Tides and Currents Weather Stations Pressure Air Temp Water Temp Dewpoint Dewpoint Depression Visibility Wind Speed Wind Dir Waves Ship Positions

Sea Cloud II

Ship's website: http://www.seacloud.com/en/the-ships/sea-cloud-ii.html

Last reported at 2018-Apr-26 18:24 UTC. Time now 2018-Apr-26 19:15 UTC.
Position N 38°59' E 001°40'.

Length 117 m; draft 6 m.

Type: Passenger vessel. MMSI: 248953000.

Date/timePositionNaut miles runAvg speedWind from/ knotsBaromVisibWave heightAir tempDewpointWater temp
2018-Apr-26 18:24N 38°59' E 001°40'4 9.4
2018-Apr-26 18:00N 38°57' E 001°36'5 9.8
2018-Apr-26 17:30N 38°54' E 001°31'3 6.9
2018-Apr-26 17:00N 38°55' E 001°27'0 0.3
2018-Apr-26 16:21N 38°55' E 001°26'0 0.0
2018-Apr-26 16:00N 38°55' E 001°26'0 0.0
2018-Apr-26 15:30N 38°55' E 001°26'0 0.0
2018-Apr-26 15:00N 38°55' E 001°26'0 0.0
2018-Apr-26 14:30N 38°55' E 001°26'0 0.0
2018-Apr-26 14:00N 38°55' E 001°26'0 0.0
2018-Apr-26 13:27N 38°55' E 001°26'0 0.0
2018-Apr-26 12:57N 38°55' E 001°26'0 0.0
2018-Apr-26 12:30N 38°55' E 001°26'0 0.0
2018-Apr-26 12:00N 38°55' E 001°26'0 0.0
2018-Apr-26 11:30N 38°55' E 001°26'0 0.2
2018-Apr-26 10:58N 38°55' E 001°27'2 3.1
2018-Apr-26 10:29N 38°54' E 001°28'3 5.8
2018-Apr-26 09:57N 38°51' E 001°31'4 8.8
2018-Apr-26 09:31N 38°48' E 001°33'121 8.7
2018-Apr-25 19:37N 37°24' W 000°17'510.8
2018-Apr-25 19:11N 37°21' W 000°22'2010.0
2018-Apr-25 17:12N 37°08' W 000°41'6 9.5
2018-Apr-25 16:32N 37°04' W 000°47'221 5.1
2018-Apr-23 21:13N 36°03' W 005°11'211.0
2018-Apr-23 21:00N 36°02' W 005°14'611.4
2018-Apr-23 20:29N 35°60' W 005°21'611.6
2018-Apr-23 20:01N 35°58' W 005°28'611.2
2018-Apr-23 19:28N 35°56' W 005°35'610.5
2018-Apr-23 18:56N 35°56' W 005°42'131 5.4
2018-Apr-22 18:38N 36°56' W 008°06'2 9.8
2018-Apr-22 18:26N 36°57' W 008°09'4 9.9
2018-Apr-22 18:00N 36°59' W 008°14'510.3
2018-Apr-22 17:30N 37°01' W 008°20'510.3
2018-Apr-22 17:00N 37°03' W 008°25'5 9.9
2018-Apr-22 16:28N 37°05' W 008°31'2 4.7
2018-Apr-22 15:57N 37°08' W 008°32'0 0.0
2018-Apr-22 15:27N 37°08' W 008°32'0 0.0
2018-Apr-22 14:57N 37°08' W 008°32'0 0.0
2018-Apr-22 14:27N 37°08' W 008°32'0 0.0
2018-Apr-22 14:00N 37°08' W 008°32'0 0.0
2018-Apr-22 13:27N 37°08' W 008°32'0 0.0
2018-Apr-22 12:57N 37°08' W 008°32'0 0.0
2018-Apr-22 12:21N 37°08' W 008°32'0 0.0
2018-Apr-22 12:00N 37°08' W 008°32'2 3.5
2018-Apr-22 11:30N 37°06' W 008°32'3 5.6
2018-Apr-22 11:00N 37°03' W 008°34'1 3.0
2018-Apr-22 10:30N 37°02' W 008°33'1 1.6
2018-Apr-22 10:00N 37°02' W 008°32'1 1.7
2018-Apr-22 09:30N 37°01' W 008°32'1 2.5
2018-Apr-22 09:00N 36°60' W 008°31'1 2.3
2018-Apr-22 08:30N 36°59' W 008°30'1 2.9
2018-Apr-22 08:00N 36°57' W 008°30'2 3.4
2018-Apr-22 07:30N 36°56' W 008°28'2 3.9
2018-Apr-22 06:59N 36°54' W 008°27'2 4.7
2018-Apr-22 06:28N 36°53' W 008°30'610.5
2018-Apr-22 05:54N 36°51' W 008°37'410.9
2018-Apr-22 05:30N 36°51' W 008°42'510.8
2018-Apr-22 05:00N 36°50' W 008°49'48 9.2
2018-Apr-21 23:47N 37°33' W 009°17'311.9
2018-Apr-21 23:30N 37°36' W 009°17'611.9
2018-Apr-21 23:00N 37°42' W 009°18'612.1
2018-Apr-21 22:30N 37°48' W 009°18'611.8
2018-Apr-21 22:00N 37°54' W 009°19'611.3
2018-Apr-21 21:30N 37°59' W 009°19'611.1
2018-Apr-21 21:00N 38°05' W 009°19'611.3
2018-Apr-21 20:30N 38°11' W 009°19'611.3
2018-Apr-21 20:00N 38°16' W 009°21'510.9
2018-Apr-21 19:30N 38°22' W 009°22'510.6
2018-Apr-21 19:00N 38°27' W 009°22'510.8
2018-Apr-21 18:30N 38°32' W 009°23'510.5
2018-Apr-21 18:00N 38°37' W 009°22'510.0
2018-Apr-21 17:30N 38°41' W 009°17'4 8.3
2018-Apr-21 17:00N 38°41' W 009°12'4 7.9
2018-Apr-21 16:30N 38°43' W 009°07'0 0.0
2018-Apr-21 15:33N 38°43' W 009°07'0 0.0
2018-Apr-21 15:30N 38°43' W 009°07'0 0.0
2018-Apr-21 14:51N 38°43' W 009°07'0 0.0
2018-Apr-21 14:12N 38°43' W 009°07'0 0.0
2018-Apr-21 13:57N 38°43' W 009°07'0 0.0
2018-Apr-21 13:09N 38°43' W 009°07'0 0.0
2018-Apr-21 12:40N 38°43' W 009°07'0 0.0
2018-Apr-21 12:09N 38°43' W 009°07'0 0.0
2018-Apr-21 11:51N 38°43' W 009°07'0 0.0
2018-Apr-21 11:30N 38°43' W 009°07'0 0.0
2018-Apr-21 10:48N 38°43' W 009°07'0 0.0
2018-Apr-21 10:27N 38°43' W 009°07'0 0.0
2018-Apr-21 10:00N 38°43' W 009°07'0 0.0
2018-Apr-21 09:24N 38°43' W 009°07'0 0.0
2018-Apr-21 08:57N 38°43' W 009°07'0 0.0
2018-Apr-21 08:30N 38°43' W 009°07'0 0.0
2018-Apr-21 08:01N 38°43' W 009°07'0 0.0
2018-Apr-21 07:30N 38°43' W 009°07'0 0.0
2018-Apr-21 06:57N 38°43' W 009°07'0 0.0
2018-Apr-21 06:27N 38°43' W 009°07'0 0.0
2018-Apr-21 06:01N 38°43' W 009°07'0 0.0
2018-Apr-21 05:31N 38°43' W 009°07'0 0.0
2018-Apr-21 05:01N 38°43' W 009°07'0 0.0
2018-Apr-21 04:31N 38°43' W 009°07'0 0.0
2018-Apr-21 04:00N 38°43' W 009°07'0 0.0
2018-Apr-21 03:24N 38°43' W 009°07'0 0.0
2018-Apr-21 02:54N 38°43' W 009°07'0 0.0
2018-Apr-21 02:30N 38°43' W 009°07'0 0.0
2018-Apr-21 01:57N 38°43' W 009°07'0 0.0
2018-Apr-21 01:15N 38°43' W 009°07'0 0.0
2018-Apr-21 00:39N 38°43' W 009°07'0 0.0
2018-Apr-21 00:27N 38°43' W 009°07'0 0.0
2018-Apr-20 23:15N 38°43' W 009°07'0 0.1
2018-Apr-20 23:00N 38°43' W 009°07'0 0.0
2018-Apr-20 22:30N 38°43' W 009°07'0 0.0
2018-Apr-20 21:51N 38°43' W 009°07'0 0.0
2018-Apr-20 21:30N 38°43' W 009°07'0 0.0
2018-Apr-20 21:00N 38°43' W 009°07'0 0.0
2018-Apr-20 20:30N 38°43' W 009°07'0 0.0
2018-Apr-20 19:54N 38°43' W 009°07'0 0.0
2018-Apr-20 19:21N 38°43' W 009°07'0 0.0
2018-Apr-20 18:57N 38°43' W 009°07'0 0.0
2018-Apr-20 18:30N 38°43' W 009°07'0 0.0
2018-Apr-20 17:48N 38°43' W 009°07'0 0.0
2018-Apr-20 17:27N 38°43' W 009°07'0 0.0
2018-Apr-20 16:54N 38°43' W 009°07'0 0.0
2018-Apr-20 16:24N 38°43' W 009°07'0 0.0
2018-Apr-20 15:48N 38°43' W 009°07'0 0.0
2018-Apr-20 15:18N 38°43' W 009°07'0 0.0
2018-Apr-20 14:51N 38°43' W 009°07'0 0.0
2018-Apr-20 14:24N 38°43' W 009°07'0 0.0
2018-Apr-20 14:00N 38°43' W 009°07'0 0.0
2018-Apr-20 13:27N 38°43' W 009°07'0 0.0
2018-Apr-20 13:00N 38°43' W 009°07'0 0.2
2018-Apr-20 12:30N 38°43' W 009°07'3 6.5
2018-Apr-20 12:00N 38°41' W 009°11'4 7.1
2018-Apr-20 11:30N 38°41' W 009°16'4 8.4
2018-Apr-20 11:00N 38°39' W 009°20'3 6.1
2018-Apr-20 10:30N 38°37' W 009°23'1 2.2
2018-Apr-20 10:00N 38°36' W 009°23'2 4.9
2018-Apr-20 09:30N 38°34' W 009°22'2 4.5
2018-Apr-20 09:00N 38°32' W 009°21'2 3.4
2018-Apr-20 08:30N 38°30' W 009°20'2 4.1
2018-Apr-20 08:00N 38°28' W 009°18'1 2.2
2018-Apr-20 07:30N 38°27' W 009°17'2 4.6
2018-Apr-20 07:00N 38°25' W 009°17'3 6.1
2018-Apr-20 06:30N 38°22' W 009°18'3 6.3
2018-Apr-20 06:00N 38°19' W 009°20'3 6.2
2018-Apr-20 05:30N 38°16' W 009°21'3 6.8
2018-Apr-20 05:00N 38°13' W 009°23'4 7.1
2018-Apr-20 04:30N 38°10' W 009°23'510.3
2018-Apr-20 04:00N 38°05' W 009°23'510.2
2018-Apr-20 03:30N 37°60' W 009°23'510.1
2018-Apr-20 03:00N 37°54' W 009°23'510.0
2018-Apr-20 02:30N 37°50' W 009°23'510.0
2018-Apr-20 02:00N 37°45' W 009°23'5 9.9
2018-Apr-20 01:30N 37°40' W 009°23'5 9.9
2018-Apr-20 01:00N 37°35' W 009°22'510.1
2018-Apr-20 00:29N 37°29' W 009°22'5 9.9
2018-Apr-20 00:00N 37°25' W 009°22'5 9.8
2018-Apr-19 23:30N 37°20' W 009°22'5 9.5
2018-Apr-19 23:00N 37°15' W 009°22'5 9.1
2018-Apr-19 22:30N 37°10' W 009°22'5 9.4
2018-Apr-19 21:59N 37°06' W 009°22'4 9.2
2018-Apr-19 21:30N 37°01' W 009°21'5 9.3
2018-Apr-19 21:00N 36°57' W 009°20'6 9.2
2018-Apr-19 20:19N 36°51' W 009°16'4 9.7
2018-Apr-19 19:53N 36°48' W 009°13'29 8.9
2018-Apr-19 16:42N 36°58' W 008°40'1 6.8
2018-Apr-19 16:30N 36°60' W 008°39'1 1.9
2018-Apr-19 16:00N 37°00' W 008°38'1 2.3
2018-Apr-19 15:30N 37°01' W 008°37'1 2.2
2018-Apr-19 15:00N 37°02' W 008°36'1 2.4
2018-Apr-19 14:30N 37°03' W 008°35'2 3.2
2018-Apr-19 14:00N 37°04' W 008°34'2 3.5
2018-Apr-19 13:30N 37°05' W 008°32'2 2.9
2018-Apr-19 12:41N 37°08' W 008°32'0 0.0
2018-Apr-19 12:11N 37°08' W 008°32'0 0.0
2018-Apr-19 11:59N 37°08' W 008°32'0 0.0
2018-Apr-19 10:23N 37°08' W 008°32'0 0.0
2018-Apr-19 09:59N 37°08' W 008°32'0 0.0
2018-Apr-19 09:29N 37°08' W 008°32'0 0.0
2018-Apr-19 08:59N 37°08' W 008°32'0 0.0
2018-Apr-19 08:29N 37°08' W 008°32'0 0.0
2018-Apr-19 07:59N 37°08' W 008°32'0 0.0
2018-Apr-19 07:29N 37°08' W 008°32'0 0.0
2018-Apr-19 06:59N 37°08' W 008°32'0 0.0
2018-Apr-19 06:29N 37°08' W 008°32'0 0.0
2018-Apr-19 05:59N 37°08' W 008°32'0 0.8
2018-Apr-19 05:30N 37°07' W 008°32'3 6.7
2018-Apr-19 05:01N 37°04' W 008°31'1 2.5
2018-Apr-19 04:30N 37°03' W 008°33'2 3.8
2018-Apr-19 04:00N 37°03' W 008°31'2 4.5
2018-Apr-19 03:31N 37°02' W 008°28'3 5.0
2018-Apr-19 03:00N 37°01' W 008°26'3 6.2
2018-Apr-19 02:30N 36°59' W 008°22'4 7.2
2018-Apr-19 02:00N 36°57' W 008°19'  

Dump ship's entire track history